Time;durP1;ratioP1;P1;durP2;ratioP2;P2;SDS_P1;SDS_P2;PMS_P1;PMS_P2;Temp;Humidity;BMP_temperature;BMP_pressure;BME280_temperature;BME280_humidity;BME280_pressure;Samples;Min_cycle;Max_cycle;Signal;HPM_P1;HPM_P2
2022/08/02 00:00:15;;;;;;;7.28;6.33;;;;;;;21.85;76.99;99263.77;1674205;84;21554;-70
2022/08/02 00:02:44;;;;;;;6.75;6.15;;;;;;;21.85;76.99;99258.29;1647450;85;21148;-70
2022/08/02 00:05:11;;;;;;;8.50;6.85;;;;;;;21.89;76.99;99261.95;1729816;82;21544;-71
2022/08/02 00:07:39;;;;;;;8.33;6.55;;;;;;;21.90;76.89;99258.66;1721234;81;20970;-70
2022/08/02 00:10:08;;;;;;;10.85;6.75;;;;;;;21.87;76.90;99253.26;1727076;81;20989;-73
2022/08/02 00:12:37;;;;;;;10.15;7.20;;;;;;;21.84;77.04;99250.40;1732692;82;21060;-73
2022/08/02 00:15:07;;;;;;;8.43;6.80;;;;;;;21.81;77.24;99252.45;1709297;82;21029;-72
2022/08/02 00:17:34;;;;;;;7.58;6.72;;;;;;;21.77;77.48;99252.89;1675261;84;21024;-72
2022/08/02 00:20:01;;;;;;;7.00;6.25;;;;;;;21.75;77.64;99257.31;1712222;83;21146;-71
2022/08/02 00:22:28;;;;;;;8.65;5.95;;;;;;;21.75;77.73;99254.58;1725287;81;21007;-71
2022/08/02 00:24:54;;;;;;;8.40;6.78;;;;;;;21.75;77.79;99259.48;1741499;82;21001;-72
2022/08/02 00:27:20;;;;;;;8.13;6.08;;;;;;;21.75;77.80;99255.95;1726665;82;20993;-72
2022/08/02 00:29:49;;;;;;;7.22;6.47;;;;;;;21.74;77.83;99261.19;1723548;82;21009;-70
2022/08/02 00:32:16;;;;;;;8.23;6.22;;;;;;;21.71;77.74;99257.76;1723436;83;21122;-72
2022/08/02 00:34:42;;;;;;;9.50;6.20;;;;;;;21.68;77.79;99259.77;1723273;83;21004;-72
2022/08/02 00:37:09;;;;;;;7.33;5.72;;;;;;;21.63;77.94;99260.78;1724439;81;20981;-72
2022/08/02 00:39:36;;;;;;;6.47;5.87;;;;;;;21.64;77.88;99258.84;1737450;81;21050;-72
2022/08/02 00:42:03;;;;;;;7.15;6.20;;;;;;;21.64;77.94;99262.95;1750157;81;20995;-70
2022/08/02 00:44:30;;;;;;;11.03;6.75;;;;;;;21.63;77.93;99262.73;1739820;82;21685;-70
2022/08/02 00:46:57;;;;;;;9.93;6.47;;;;;;;21.64;77.86;99262.95;1715175;82;20988;-70
2022/08/02 00:49:23;;;;;;;5.45;4.95;;;;;;;21.64;77.69;99261.02;1746424;82;20948;-71
2022/08/02 00:51:50;;;;;;;11.48;6.10;;;;;;;21.66;77.66;99268.91;1746206;82;21087;-70
2022/08/02 00:54:17;;;;;;;10.53;6.12;;;;;;;21.55;77.95;99267.69;1707485;83;21005;-71
2022/08/02 00:56:44;;;;;;;7.37;5.62;;;;;;;21.50;78.01;99267.31;1728947;81;21177;-71
2022/08/02 00:59:10;;;;;;;10.13;6.08;;;;;;;21.46;78.18;99265.02;1694106;83;21037;-71
2022/08/02 01:01:37;;;;;;;9.05;5.90;;;;;;;21.46;78.07;99260.10;1670993;85;21534;-68
2022/08/02 01:04:11;;;;;;;8.83;6.17;;;;;;;21.47;77.89;99255.67;1671201;84;21035;-70
2022/08/02 01:06:41;;;;;;;6.62;4.80;;;;;;;21.49;77.66;99253.39;1671262;85;21026;-71
2022/08/02 01:09:07;;;;;;;8.95;5.25;;;;;;;21.50;77.19;99248.16;1671044;85;21323;-72
2022/08/02 01:11:36;;;;;;;11.15;5.90;;;;;;;21.48;76.71;99246.34;1670930;85;20998;-72
2022/08/02 01:14:11;;;;;;;5.72;4.92;;;;;;;21.45;76.52;99246.98;1671252;84;21586;-70
2022/08/02 01:17:13;;;;;;;7.08;4.85;;;;;;;21.45;76.57;99240.70;1649896;85;21554;-71
2022/08/02 01:19:52;;;;;;;10.38;5.72;;;;;;;21.45;76.32;99244.25;1602285;89;21158;-70
2022/08/02 01:22:42;;;;;;;10.88;5.25;;;;;;;21.40;76.34;99244.45;1626679;85;21520;-71
2022/08/02 01:25:29;;;;;;;8.73;5.90;;;;;;;21.40;76.47;99253.21;1673623;85;21092;-71
2022/08/02 01:28:36;;;;;;;5.95;5.42;;;;;;;21.36;76.68;99250.91;1670235;85;21105;-71
2022/08/02 01:31:26;;;;;;;8.50;4.92;;;;;;;21.37;76.85;99251.95;1678236;85;21030;-71
2022/08/02 01:34:25;;;;;;;6.00;5.35;;;;;;;21.35;77.06;99249.30;1671185;85;20954;-71
2022/08/02 01:36:59;;;;;;;5.53;5.12;;;;;;;21.30;77.37;99247.00;1605958;84;21167;-72
2022/08/02 01:39:28;;;;;;;7.90;5.60;;;;;;;21.30;77.61;99237.98;1604266;86;21172;-72
2022/08/02 01:41:56;;;;;;;12.10;5.87;;;;;;;21.33;77.69;99237.91;1647637;85;21002;-72
2022/08/02 01:44:24;;;;;;;6.75;5.92;;;;;;;21.30;78.08;99237.98;1648937;85;21537;-74
2022/08/02 01:46:51;;;;;;;6.17;5.58;;;;;;;21.26;78.34;99231.02;1630869;86;21103;-71
2022/08/02 01:49:19;;;;;;;9.55;5.67;;;;;;;21.30;78.28;99234.69;1630671;84;22239;-72
2022/08/02 01:54:34;;;;;;;7.17;5.67;;;;;;;21.24;78.42;99233.87;1670203;84;21053;-73
2022/08/02 01:57:03;;;;;;;12.98;6.22;;;;;;;21.22;78.32;99227.91;1668308;85;21057;-72
2022/08/02 01:59:31;;;;;;;7.22;5.58;;;;;;;21.19;78.14;99221.75;1671459;85;21097;-72
2022/08/02 02:01:58;;;;;;;8.70;6.00;;;;;;;21.19;77.99;99228.02;1674532;84;21101;-69
2022/08/02 02:04:27;;;;;;;6.72;5.33;;;;;;;21.19;77.90;99222.55;1671181;85;21037;-70
2022/08/02 02:06:55;;;;;;;5.30;4.78;;;;;;;21.17;77.86;99226.73;1712378;81;21001;-71
2022/08/02 02:09:25;;;;;;;7.10;5.67;;;;;;;21.15;77.88;99228.42;1723464;82;21381;-71
2022/08/02 02:11:51;;;;;;;5.67;5.17;;;;;;;21.12;77.93;99215.39;1723676;82;21033;-70
2022/08/02 02:14:18;;;;;;;7.50;4.90;;;;;;;21.12;77.77;99218.69;1723567;82;21928;-70
2022/08/02 02:16:51;;;;;;;6.78;5.33;;;;;;;21.14;77.71;99212.36;1723149;81;21515;-71
2022/08/02 02:19:18;;;;;;;5.60;4.75;;;;;;;21.09;77.65;99206.49;1723221;83;21045;-71
2022/08/02 02:21:44;;;;;;;5.55;5.08;;;;;;;21.11;77.54;99207.50;1730554;82;21069;-70
2022/08/02 02:24:11;;;;;;;6.80;5.37;;;;;;;21.07;77.82;99212.84;1716286;82;21080;-69
2022/08/02 02:26:39;;;;;;;5.37;4.75;;;;;;;21.05;77.97;99209.66;1678600;84;22296;-72
2022/08/02 02:29:08;;;;;;;8.30;5.67;;;;;;;21.06;77.91;99204.39;1681965;84;21119;-70
2022/08/02 02:31:38;;;;;;;5.40;4.90;;;;;;;21.05;77.67;99206.92;1681705;85;21129;-70
2022/08/02 02:34:15;;;;;;;6.00;5.25;;;;;;;21.02;77.52;99206.20;1703635;81;21479;-70
2022/08/02 02:36:47;;;;;;;5.67;5.17;;;;;;;20.97;77.23;99198.18;1726136;81;21029;-72
2022/08/02 02:39:14;;;;;;;6.53;4.90;;;;;;;20.98;76.97;99207.99;1690291;82;21147;-71
2022/08/02 02:41:41;;;;;;;7.22;5.30;;;;;;;21.02;76.98;99202.66;1731024;82;21007;-70
2022/08/02 02:44:12;;;;;;;5.70;5.20;;;;;;;21.05;76.86;99205.55;1703399;82;20917;-71
2022/08/02 02:46:39;;;;;;;7.50;5.70;;;;;;;21.08;76.79;99206.81;1723824;81;21020;-71
2022/08/02 02:49:08;;;;;;;6.97;5.37;;;;;;;21.11;76.66;99206.94;1711334;83;21106;-72
2022/08/02 02:51:35;;;;;;;5.47;4.95;;;;;;;21.11;76.38;99197.38;1694051;82;21732;-71
2022/08/02 02:54:04;;;;;;;10.75;4.80;;;;;;;21.14;76.33;99200.86;1681356;84;21568;-71
2022/08/02 02:56:34;;;;;;;5.35;4.75;;;;;;;21.13;76.27;99199.25;1681876;82;21044;-71
2022/08/02 02:59:01;;;;;;;5.80;4.47;;;;;;;21.14;76.17;99196.76;1674715;84;21052;-70
2022/08/02 03:01:29;;;;;;;14.43;5.72;;;;;;;21.15;76.04;99197.56;1678739;81;21141;-70
2022/08/02 03:04:00;;;;;;;8.70;5.20;;;;;;;21.17;75.87;99201.55;1674868;85;21596;-72
2022/08/02 03:06:28;;;;;;;8.63;4.90;;;;;;;21.19;75.54;99199.86;1674567;84;21044;-73
2022/08/02 03:08:55;;;;;;;9.08;4.37;;;;;;;21.16;75.26;99204.05;1674956;84;21045;-71
2022/08/02 03:11:23;;;;;;;5.87;4.65;;;;;;;21.19;75.22;99207.51;1675004;85;21049;-72
2022/08/02 03:13:50;;;;;;;6.47;5.70;;;;;;;21.20;74.97;99214.55;1674724;84;21657;-71
2022/08/02 03:16:19;;;;;;;6.35;4.42;;;;;;;21.21;74.79;99209.89;1713985;81;21907;-71
2022/08/02 03:18:45;;;;;;;5.95;4.25;;;;;;;21.17;74.67;99208.95;1724398;82;21510;-71
2022/08/02 03:21:12;;;;;;;5.42;4.95;;;;;;;21.18;74.68;99218.20;1708580;81;21580;-71
2022/08/02 03:23:41;;;;;;;12.47;5.08;;;;;;;21.16;74.72;99215.55;1683356;83;21071;-72
2022/08/02 03:26:08;;;;;;;10.95;4.85;;;;;;;21.15;74.77;99215.34;1723845;82;21005;-72
2022/08/02 03:28:35;;;;;;;5.35;4.85;;;;;;;21.17;74.84;99218.53;1723437;82;21196;-71
2022/08/02 03:31:01;;;;;;;5.28;4.25;;;;;;;21.16;74.81;99215.55;1723482;83;21027;-71
2022/08/02 03:33:28;;;;;;;13.60;4.70;;;;;;;21.16;74.90;99215.55;1723355;83;20953;-72
2022/08/02 03:35:58;;;;;;;5.42;4.92;;;;;;;21.16;75.17;99216.92;1727670;82;21013;-70
2022/08/02 03:38:25;;;;;;;9.75;5.22;;;;;;;21.14;75.15;99221.94;1692340;82;20989;-70
2022/08/02 03:40:51;;;;;;;5.17;4.25;;;;;;;21.10;75.56;99225.84;1722605;83;21307;-70
2022/08/02 03:43:18;;;;;;;4.37;3.98;;;;;;;21.07;75.69;99223.78;1723511;83;21010;-71
2022/08/02 03:45:47;;;;;;;6.33;4.95;;;;;;;21.05;75.83;99225.26;1723713;83;21020;-71
2022/08/02 03:48:15;;;;;;;12.85;5.37;;;;;;;21.05;75.98;99219.23;1723498;83;20953;-70
2022/08/02 03:50:42;;;;;;;6.47;4.50;;;;;;;21.04;76.10;99218.98;1675492;84;21628;-71
2022/08/02 03:53:08;;;;;;;7.67;5.45;;;;;;;21.02;76.22;99225.34;1630776;85;21136;-71
2022/08/02 03:55:38;;;;;;;8.88;4.65;;;;;;;20.94;77.25;99225.39;1678365;84;21731;-71
2022/08/02 03:58:05;;;;;;;10.98;8.05;;;;;;;20.88;77.66;99224.77;1679374;85;21080;-70
2022/08/02 04:00:32;;;;;;;8.88;5.83;;;;;;;20.87;77.81;99221.80;1653087;84;21003;-71
2022/08/02 04:02:58;;;;;;;5.95;5.30;;;;;;;20.82;78.03;99215.95;1711697;83;20980;-70
2022/08/02 04:05:25;;;;;;;5.10;4.67;;;;;;;20.77;78.87;99223.52;1711701;83;21890;-72
2022/08/02 04:07:52;;;;;;;7.95;5.10;;;;;;;20.71;79.45;99232.50;1715424;83;20991;-70
2022/08/02 04:10:19;;;;;;;12.85;5.78;;;;;;;20.65;80.29;99232.99;1718482;83;21561;-71
2022/08/02 04:12:45;;;;;;;7.95;5.08;;;;;;;20.57;81.02;99242.03;1723478;82;21029;-70
2022/08/02 04:15:13;;;;;;;8.40;4.90;;;;;;;20.45;82.18;99236.67;1723096;82;21080;-70
2022/08/02 04:17:44;;;;;;;5.65;5.00;;;;;;;20.38;83.11;99245.91;1723533;83;21623;-69
2022/08/02 04:20:16;;;;;;;4.95;4.55;;;;;;;20.29;84.25;99249.77;1722711;81;20981;-68
2022/08/02 04:22:57;;;;;;;5.47;4.97;;;;;;;20.27;84.47;99252.03;1723058;83;21017;-70
2022/08/02 04:25:23;;;;;;;11.12;7.62;;;;;;;20.24;85.30;99256.79;1717415;81;21011;-71
2022/08/02 04:27:50;;;;;;;5.65;5.05;;;;;;;20.25;84.91;99255.64;1721151;82;21096;-71
2022/08/02 04:30:17;;;;;;;5.37;4.95;;;;;;;20.27;84.98;99252.84;1726351;81;21820;-69
2022/08/02 04:32:44;;;;;;;10.40;4.90;;;;;;;20.28;84.99;99248.18;1706109;83;20937;-71
2022/08/02 04:35:11;;;;;;;13.08;5.95;;;;;;;20.24;85.24;99251.33;1711318;81;21095;-71
2022/08/02 04:37:38;;;;;;;6.28;5.67;;;;;;;20.23;85.05;99261.45;1712183;82;21038;-70
2022/08/02 04:40:11;;;;;;;5.22;4.40;;;;;;;20.23;85.71;99264.73;1708013;83;21538;-69
2022/08/02 04:42:38;;;;;;;9.25;5.55;;;;;;;20.17;86.08;99255.91;1702227;83;21829;-69
2022/08/02 04:45:07;;;;;;;9.50;5.37;;;;;;;20.12;85.98;99256.63;1734818;81;21009;-72
2022/08/02 04:47:34;;;;;;;6.12;5.42;;;;;;;20.10;86.48;99261.04;1722143;81;21501;-71
2022/08/02 04:50:00;;;;;;;9.78;4.78;;;;;;;20.02;87.10;99267.32;1723644;82;21045;-71
2022/08/02 04:52:27;;;;;;;5.20;4.72;;;;;;;19.98;87.60;99264.44;1723342;82;21057;-71
2022/08/02 04:54:53;;;;;;;9.95;4.97;;;;;;;19.97;87.58;99264.19;1680864;83;21132;-69
2022/08/02 05:00:09;;;;;;;6.75;4.92;;;;;;;19.89;87.60;99262.27;1696014;83;21044;-70
2022/08/02 05:02:36;;;;;;;5.72;4.95;;;;;;;19.82;87.45;99264.67;1675060;85;21585;-69
2022/08/02 05:05:04;;;;;;;8.33;5.08;;;;;;;19.82;87.71;99266.59;1676268;83;21188;-71
2022/08/02 05:07:30;;;;;;;6.00;5.03;;;;;;;19.85;87.76;99261.87;1674756;84;21853;-70
2022/08/02 05:09:57;;;;;;;5.72;4.37;;;;;;;19.86;88.58;99262.90;1674526;84;20953;-70
2022/08/02 05:12:24;;;;;;;6.37;5.20;;;;;;;19.87;88.77;99261.78;1690963;81;20981;-68
2022/08/02 05:14:51;;;;;;;6.92;5.28;;;;;;;19.83;89.19;99263.55;1723380;81;21606;-72
2022/08/02 05:17:19;;;;;;;5.33;4.83;;;;;;;19.78;89.21;99262.34;1732415;81;21024;-71
2022/08/02 05:19:48;;;;;;;5.78;5.05;;;;;;;19.72;89.75;99261.45;1730759;82;21350;-72
2022/08/02 05:22:15;;;;;;;5.00;4.60;;;;;;;19.64;90.27;99251.34;1718210;82;21038;-69
2022/08/02 05:24:41;;;;;;;9.60;5.42;;;;;;;19.59;90.90;99250.38;1681883;85;21007;-71
2022/08/02 05:27:08;;;;;;;11.22;5.10;;;;;;;19.51;90.51;99247.09;1681774;84;21087;-71
2022/08/02 05:29:39;;;;;;;6.42;5.80;;;;;;;19.51;90.25;99248.46;1681588;85;21075;-71
2022/08/02 05:32:06;;;;;;;5.28;4.67;;;;;;;19.59;90.18;99255.03;1698203;81;21233;-71
2022/08/02 05:34:35;;;;;;;8.25;4.92;;;;;;;19.70;90.24;99258.26;1729161;82;20934;-72
2022/08/02 05:37:07;;;;;;;6.65;5.62;;;;;;;19.75;90.07;99253.45;1711725;82;21573;-72
2022/08/02 05:39:33;;;;;;;5.67;5.15;;;;;;;19.78;89.90;99256.89;1702086;81;21036;-72
2022/08/02 05:42:02;;;;;;;5.40;4.87;;;;;;;19.82;90.68;99253.75;1727977;82;21020;-71
2022/08/02 05:44:29;;;;;;;8.58;5.25;;;;;;;19.82;90.68;99253.75;1724919;82;21195;-72
2022/08/02 05:46:55;;;;;;;10.08;5.75;;;;;;;19.85;91.02;99254.50;1723375;82;20941;-71
2022/08/02 05:49:21;;;;;;;10.20;5.35;;;;;;;19.95;90.90;99253.37;1723613;83;20942;-72
2022/08/02 05:52:09;;;;;;;5.03;4.53;;;;;;;19.98;90.39;99243.16;1723457;83;21092;-72
2022/08/02 05:54:42;;;;;;;5.72;5.15;;;;;;;20.00;89.71;99249.89;1722721;81;21033;-72
2022/08/02 05:57:37;;;;;;;9.48;5.87;;;;;;;20.00;90.05;99251.25;1683661;82;21142;-72
2022/08/02 06:00:09;;;;;;;7.95;5.50;;;;;;;20.01;89.92;99258.32;1688923;81;21087;-69
2022/08/02 06:03:00;;;;;;;8.15;4.87;;;;;;;20.03;89.52;99258.81;1731131;82;20925;-72
2022/08/02 06:05:39;;;;;;;7.30;4.92;;;;;;;20.06;89.18;99260.08;1733570;82;21025;-70
2022/08/02 06:08:09;;;;;;;7.30;5.05;;;;;;;20.07;89.18;99253.50;1686780;83;21549;-70
2022/08/02 06:10:37;;;;;;;5.37;4.87;;;;;;;20.08;89.38;99254.31;1674707;85;21085;-71
2022/08/02 06:13:11;;;;;;;5.55;5.05;;;;;;;20.07;89.80;99260.33;1674615;84;21599;-72
2022/08/02 06:15:39;;;;;;;6.30;5.67;;;;;;;20.07;90.13;99255.43;1661666;83;21084;-71
2022/08/02 06:18:06;;;;;;;6.95;6.35;;;;;;;20.05;90.30;99254.97;1674880;83;21070;-73
2022/08/02 06:20:34;;;;;;;7.03;5.78;;;;;;;19.98;90.20;99250.79;1674619;84;21044;-71
2022/08/02 06:23:04;;;;;;;8.90;5.28;;;;;;;19.84;90.30;99245.25;1697028;81;21071;-71
2022/08/02 06:25:34;;;;;;;5.12;4.65;;;;;;;19.84;90.30;99245.25;1707663;83;21024;-72
2022/08/02 06:28:04;;;;;;;6.17;5.42;;;;;;;19.79;90.71;99244.05;1717876;82;21053;-70
2022/08/02 06:30:31;;;;;;;10.45;6.20;;;;;;;19.70;91.69;99232.33;1723539;83;21541;-72
2022/08/02 06:32:58;;;;;;;7.65;6.25;;;;;;;19.70;91.69;99232.33;1703188;83;21085;-69
2022/08/02 06:35:31;;;;;;;6.30;5.10;;;;;;;19.58;92.71;99232.41;1710781;81;21064;-73
2022/08/02 06:37:59;;;;;;;9.93;5.83;;;;;;;19.58;92.71;99232.41;1723371;83;21413;-71
2022/08/02 06:40:52;;;;;;;5.95;4.90;;;;;;;19.54;93.69;99228.72;1723495;83;21033;-71
2022/08/02 06:43:51;;;;;;;6.15;5.37;;;;;;;19.54;93.69;99228.72;1716925;81;20999;-73
2022/08/02 06:46:20;;;;;;;5.75;5.15;;;;;;;19.55;94.48;99230.33;1723769;83;21009;-71
2022/08/02 06:48:47;;;;;;;11.50;5.37;;;;;;;19.54;95.03;99227.35;1723798;83;21225;-73
2022/08/02 06:51:14;;;;;;;6.30;5.47;;;;;;;19.58;95.15;99228.31;1723386;82;21013;-71
2022/08/02 06:53:40;;;;;;;8.08;4.92;;;;;;;19.60;95.25;99237.55;1722969;81;21115;-71
2022/08/02 06:56:07;;;;;;;5.92;5.35;;;;;;;19.62;95.00;99238.57;1723783;82;20929;-72
2022/08/02 06:58:35;;;;;;;5.62;4.65;;;;;;;19.63;94.77;99236.09;1709820;82;21016;-70
2022/08/02 07:01:06;;;;;;;6.12;5.62;;;;;;;19.63;94.96;99243.72;1723423;82;21122;-75
2022/08/02 07:03:36;;;;;;;7.17;5.35;;;;;;;19.63;95.19;99250.53;1723073;83;21020;-76
2022/08/02 07:06:03;;;;;;;8.03;5.47;;;;;;;19.64;95.88;99252.15;1722258;83;20977;-73
2022/08/02 07:08:34;;;;;;;7.20;5.85;;;;;;;19.66;96.56;99257.30;1720642;82;21063;-71
2022/08/02 07:11:01;;;;;;;6.03;5.45;;;;;;;19.68;96.90;99260.48;1716704;83;21007;-70
2022/08/02 07:13:28;;;;;;;6.47;5.87;;;;;;;19.70;97.36;99260.98;1716439;83;21199;-70
2022/08/02 07:15:56;;;;;;;6.92;5.60;;;;;;;19.68;97.58;99264.58;1714159;81;21735;-73
2022/08/02 07:18:23;;;;;;;6.30;5.67;;;;;;;19.69;98.59;99268.37;1711545;82;21548;-71
2022/08/02 07:20:51;;;;;;;8.78;6.00;;;;;;;19.69;98.59;99268.37;1731862;82;21041;-72
2022/08/02 07:23:17;;;;;;;5.87;5.37;;;;;;;19.69;98.74;99271.09;1723428;83;21076;-72
2022/08/02 07:25:46;;;;;;;5.97;5.10;;;;;;;19.69;99.04;99269.73;1702625;83;21513;-73
2022/08/02 07:28:14;;;;;;;6.97;5.40;;;;;;;19.68;98.92;99274.13;1720316;82;21092;-73
2022/08/02 07:30:41;;;;;;;6.33;5.53;;;;;;;19.60;99.30;99270.28;1725318;82;21092;-70
2022/08/02 07:33:10;;;;;;;9.13;6.00;;;;;;;19.58;99.32;99274.69;1723550;83;21530;-72
2022/08/02 07:35:36;;;;;;;6.75;5.25;;;;;;;19.58;99.32;99274.69;1724116;82;20973;-72
2022/08/02 07:38:05;;;;;;;7.17;5.15;;;;;;;19.56;99.71;99263.87;1701428;83;21058;-72
2022/08/02 07:40:32;;;;;;;5.60;5.10;;;;;;;19.51;99.88;99270.28;1726142;82;21031;-72
2022/08/02 07:43:19;;;;;;;7.55;5.72;;;;;;;19.45;100.00;99287.11;1723317;82;21016;-71
2022/08/02 07:45:45;;;;;;;9.38;5.20;;;;;;;19.39;100.00;99278.80;1720565;81;21120;-71
2022/08/02 07:48:14;;;;;;;5.60;5.00;;;;;;;19.36;100.00;99278.08;1715187;82;21604;-72
2022/08/02 07:50:40;;;;;;;8.45;5.50;;;;;;;19.33;100.00;99277.36;1707144;81;21595;-72
2022/08/02 07:53:07;;;;;;;5.75;5.17;;;;;;;19.32;100.00;99275.19;1723193;82;21015;-70
2022/08/02 07:55:34;;;;;;;6.45;5.42;;;;;;;19.32;100.00;99275.75;1723570;82;21025;-71
2022/08/02 07:58:01;;;;;;;7.20;5.42;;;;;;;19.33;100.00;99282.81;1723462;83;21049;-71
2022/08/02 08:00:27;;;;;;;5.62;4.50;;;;;;;19.34;100.00;99287.13;1723379;83;21586;-70
2022/08/02 08:02:54;;;;;;;5.62;5.05;;;;;;;19.34;100.00;99288.48;1712073;83;21140;-72
2022/08/02 08:05:22;;;;;;;9.88;4.97;;;;;;;19.34;100.00;99291.22;1705030;81;21044;-72
2022/08/02 08:07:50;;;;;;;5.22;4.65;;;;;;;19.34;100.00;99289.84;1723430;83;20996;-71
2022/08/02 08:10:18;;;;;;;5.78;5.25;;;;;;;19.37;100.00;99302.87;1687640;83;21024;-71
2022/08/02 08:12:45;;;;;;;8.13;5.45;;;;;;;19.41;100.00;99316.11;1706005;81;21118;-72
2022/08/02 08:15:12;;;;;;;5.50;4.95;;;;;;;19.44;100.00;99322.31;1715076;82;21149;-71
2022/08/02 08:17:39;;;;;;;6.10;5.50;;;;;;;19.46;100.00;99321.45;1714655;83;20894;-71
2022/08/02 08:20:06;;;;;;;8.30;5.12;;;;;;;19.44;100.00;99319.59;1690161;82;21690;-72
2022/08/02 08:22:33;;;;;;;5.75;5.12;;;;;;;19.41;100.00;99318.28;1694606;83;21519;-71
2022/08/02 08:25:01;;;;;;;10.78;4.78;;;;;;;19.44;100.00;99327.77;1695066;84;21027;-72
2022/08/02 08:27:28;;;;;;;7.58;6.67;;;;;;;19.45;100.00;99334.28;1694686;83;21158;-72
2022/08/02 08:29:56;;;;;;;10.30;6.28;;;;;;;19.50;100.00;99331.97;1717105;83;21041;-70
2022/08/02 08:32:23;;;;;;;5.83;5.33;;;;;;;19.54;100.00;99322.83;1695597;83;20976;-72
2022/08/02 08:34:50;;;;;;;11.28;6.28;;;;;;;19.51;100.00;99319.38;1674685;84;21540;-69
2022/08/02 08:37:17;;;;;;;10.43;6.33;;;;;;;19.48;100.00;99317.27;1674858;84;21063;-74
2022/08/02 08:39:45;;;;;;;8.60;6.65;;;;;;;19.46;100.00;99318.72;1704540;83;21744;-71
2022/08/02 08:42:12;;;;;;;7.78;5.87;;;;;;;19.49;100.00;99310.70;1723490;83;21056;-70
2022/08/02 08:44:38;;;;;;;12.60;5.72;;;;;;;19.56;100.00;99308.88;1723528;83;21001;-70
2022/08/02 08:47:05;;;;;;;8.38;5.35;;;;;;;19.63;100.00;99314.66;1723612;82;21719;-71
2022/08/02 08:49:38;;;;;;;11.43;9.80;;;;;;;19.68;100.00;99314.50;1696235;81;21019;-72
2022/08/02 08:52:05;;;;;;;7.10;6.42;;;;;;;19.70;100.00;99312.27;1721405;82;21400;-71
2022/08/02 08:54:34;;;;;;;7.10;6.20;;;;;;;19.70;100.00;99314.19;1723443;83;21357;-71
2022/08/02 08:57:05;;;;;;;9.63;6.78;;;;;;;19.71;100.00;99313.86;1723579;82;21017;-69
2022/08/02 08:59:32;;;;;;;7.53;6.83;;;;;;;19.77;100.00;99315.87;1692938;83;20984;-74
2022/08/02 09:02:04;;;;;;;6.75;5.97;;;;;;;19.78;100.00;99314.20;1675044;85;21121;-73
2022/08/02 09:04:33;;;;;;;7.58;6.08;;;;;;;19.78;100.00;99303.84;1702922;81;21065;-72
2022/08/02 09:07:00;;;;;;;7.33;5.90;;;;;;;19.76;100.00;99305.52;1698339;83;21513;-69
2022/08/02 09:09:28;;;;;;;14.18;6.87;;;;;;;19.77;100.00;99306.32;1723082;81;20993;-69
2022/08/02 09:12:15;;;;;;;6.75;6.15;;;;;;;19.79;100.00;99304.09;1723640;83;21092;-70
2022/08/02 09:14:42;;;;;;;6.90;6.17;;;;;;;19.73;100.00;99311.62;1719003;83;21123;-69
2022/08/02 09:17:11;;;;;;;7.75;5.72;;;;;;;19.71;100.00;99307.63;1709491;82;21617;-72
2022/08/02 09:19:38;;;;;;;8.38;6.78;;;;;;;19.72;100.00;99316.02;1681311;84;22315;-70
2022/08/02 09:22:13;;;;;;;12.45;7.87;;;;;;;19.70;100.00;99310.10;1682756;84;20987;-70
2022/08/02 09:24:48;;;;;;;6.53;5.90;;;;;;;19.68;100.00;99315.87;1718114;81;20996;-67
2022/08/02 09:27:18;;;;;;;7.00;6.25;;;;;;;19.70;100.00;99327.28;1743201;81;20940;-70
2022/08/02 09:29:49;;;;;;;7.60;6.85;;;;;;;19.74;100.00;99313.23;1724010;81;21149;-71
2022/08/02 09:32:17;;;;;;;6.30;5.80;;;;;;;19.74;100.00;99315.96;1718630;82;20965;-67
2022/08/02 09:34:48;;;;;;;8.20;7.33;;;;;;;19.73;100.00;99317.64;1723809;81;21132;-68
2022/08/02 09:37:26;;;;;;;7.47;6.78;;;;;;;19.72;100.00;99317.39;1722725;81;20965;-70
2022/08/02 09:39:54;;;;;;;10.63;7.05;;;;;;;19.73;100.00;99317.08;1723290;83;21057;-71
2022/08/02 09:42:21;;;;;;;9.20;7.00;;;;;;;19.74;100.00;99322.79;1716841;83;21204;-72
2022/08/02 09:44:59;;;;;;;7.92;6.17;;;;;;;19.73;100.00;99325.83;1723398;82;21049;-70
2022/08/02 09:47:26;;;;;;;6.67;5.90;;;;;;;19.73;100.00;99331.28;1730494;81;21347;-69
2022/08/02 09:49:54;;;;;;;6.53;5.95;;;;;;;19.70;100.00;99326.47;1692692;82;21265;-72
2022/08/02 09:52:28;;;;;;;10.18;6.95;;;;;;;19.72;100.00;99332.40;1730390;82;21099;-71
2022/08/02 09:54:55;;;;;;;7.03;6.10;;;;;;;19.69;100.00;99331.13;1725517;83;21873;-71
2022/08/02 09:57:28;;;;;;;7.40;5.62;;;;;;;19.64;100.00;99328.55;1715044;82;22751;-68
2022/08/02 09:59:55;;;;;;;;;;;;;;;19.66;100.00;99332.33;1712939;83;21481;-69
2022/08/02 10:02:23;;;;;;;7.12;6.42;;;;;;;19.65;100.00;99340.27;1709527;83;20179;-72
2022/08/02 10:04:49;;;;;;;7.03;6.40;;;;;;;19.61;100.00;99329.75;1706309;82;20949;-70
2022/08/02 10:07:17;;;;;;;7.90;6.80;;;;;;;19.60;100.00;99334.40;1672545;85;21219;-75
2022/08/02 10:09:45;;;;;;;6.47;5.95;;;;;;;19.60;100.00;99331.67;1707354;82;20960;-80
2022/08/02 10:12:16;;;;;;;12.28;6.17;;;;;;;19.59;100.00;99340.41;1711318;83;21541;-82
2022/08/02 10:14:43;;;;;;;7.97;7.28;;;;;;;19.60;100.00;99339.86;1714316;81;21194;-74
2022/08/02 10:17:10;;;;;;;11.48;6.50;;;;;;;19.59;100.00;99351.33;1705187;83;21103;-71
2022/08/02 10:19:38;;;;;;;11.25;5.65;;;;;;;19.55;100.00;99336.72;1674774;83;41001;-71
2022/08/02 10:22:07;;;;;;;10.90;7.60;;;;;;;19.51;100.00;99340.40;1712124;82;20917;-70
2022/08/02 10:24:36;;;;;;;13.45;9.25;;;;;;;19.48;100.00;99337.73;1698445;82;21025;-71
2022/08/02 10:27:03;;;;;;;6.97;6.35;;;;;;;19.44;100.00;99342.22;1689200;82;21051;-71
2022/08/02 10:29:36;;;;;;;13.15;11.88;;;;;;;19.40;100.00;99341.22;1719899;82;21043;-71
2022/08/02 10:32:08;;;;;;;7.30;6.70;;;;;;;19.35;100.00;99342.72;1711462;82;21935;-71
2022/08/02 10:34:54;;;;;;;7.72;6.97;;;;;;;19.31;100.00;99334.12;1684738;82;20938;-72
2022/08/02 10:37:22;;;;;;;6.95;6.33;;;;;;;19.31;100.00;99344.48;1740739;81;20936;-77
2022/08/02 10:39:51;;;;;;;8.18;7.05;;;;;;;19.32;100.00;99341.19;1718858;82;21036;-81
2022/08/02 10:42:45;;;;;;;13.15;7.42;;;;;;;19.30;100.00;99344.23;1717741;82;21056;-74
2022/08/02 10:45:17;;;;;;;9.18;8.35;;;;;;;19.29;100.00;99353.52;1723672;82;21332;-77
2022/08/02 10:48:13;;;;;;;8.43;7.67;;;;;;;19.28;100.00;99338.27;1651116;83;20980;-77
2022/08/02 10:50:52;;;;;;;8.83;7.00;;;;;;;19.26;100.00;99337.80;1710865;83;21072;-76
2022/08/02 10:53:25;;;;;;;8.55;7.67;;;;;;;19.21;100.00;99340.67;1688995;83;21015;-76
2022/08/02 10:55:56;;;;;;;9.43;8.18;;;;;;;19.19;100.00;99341.53;1706925;82;20989;-76
2022/08/02 10:58:32;;;;;;;9.20;7.78;;;;;;;19.16;100.00;99342.17;1677754;85;21603;-79
2022/08/02 11:01:36;;;;;;;8.20;7.28;;;;;;;19.14;100.00;99342.47;1657680;85;20976;-79
2022/08/02 11:04:15;;;;;;;9.50;7.17;;;;;;;19.13;100.00;99343.62;1671660;83;20956;-79
2022/08/02 11:07:16;;;;;;;7.50;6.80;;;;;;;19.14;100.00;99349.29;1710823;82;21521;-77
2022/08/02 11:09:46;;;;;;;7.42;6.53;;;;;;;19.17;100.00;99353.33;1711019;83;21092;-88
2022/08/02 11:12:16;;;;;;;8.73;7.37;;;;;;;19.14;100.00;99353.94;1712130;83;21167;-75
2022/08/02 11:14:45;;;;;;;10.38;7.28;;;;;;;19.13;100.00;99344.98;1711611;83;21585;-73
2022/08/02 11:17:16;;;;;;;7.92;6.25;;;;;;;19.15;100.00;99345.45;1710995;82;20992;-73
2022/08/02 11:20:11;;;;;;;7.87;7.15;;;;;;;19.18;100.00;99350.27;1711216;83;21092;-73
2022/08/02 11:22:41;;;;;;;7.60;6.95;;;;;;;19.24;100.00;99347.40;1709881;82;20949;-76
2022/08/02 11:25:30;;;;;;;6.78;6.08;;;;;;;19.26;100.00;99345.17;1711557;83;21228;-71
2022/08/02 11:28:07;;;;;;;6.35;5.75;;;;;;;19.28;100.00;99336.13;1711037;82;21184;-71
2022/08/02 11:30:35;;;;;;;7.97;7.17;;;;;;;19.28;100.00;99342.36;1690674;83;21011;-73
2022/08/02 11:33:02;;;;;;;7.33;6.55;;;;;;;19.24;100.00;99342.75;1711194;83;21064;-72
2022/08/02 11:35:38;;;;;;;7.12;6.47;;;;;;;19.19;100.00;99345.62;1711570;83;21004;-76
2022/08/02 11:38:18;;;;;;;6.75;6.03;;;;;;;19.18;100.00;99344.81;1709622;83;21082;-76
2022/08/02 11:40:46;;;;;;;8.23;7.28;;;;;;;19.20;100.00;99344.50;1711681;83;21641;-80
2022/08/02 11:43:23;;;;;;;7.47;6.40;;;;;;;19.22;100.00;99346.93;1709228;82;20987;-79
2022/08/02 11:45:52;;;;;;;8.10;7.40;;;;;;;19.22;100.00;99345.56;1631017;86;21099;-80
2022/08/02 11:48:34;;;;;;;6.67;6.15;;;;;;;19.20;100.00;99345.87;1651133;86;21028;-77